createdAt,value
2019-01-20T00:00:52.870Z,-5.20
2019-01-20T00:02:53.819Z,-5.00
2019-01-20T00:04:54.497Z,-4.87
2019-01-20T00:06:55.162Z,-5.06
2019-01-20T00:08:55.915Z,-4.80
2019-01-20T00:10:56.706Z,-4.74
2019-01-20T00:12:57.619Z,-4.86
2019-01-20T00:14:58.260Z,-4.84
2019-01-20T00:16:59.125Z,-4.75
2019-01-20T00:18:59.839Z,-4.94
2019-01-20T00:21:00.784Z,-4.78
2019-01-20T00:23:01.490Z,-4.75
2019-01-20T00:25:04.617Z,-4.72
2019-01-20T00:27:05.242Z,-5.14
2019-01-20T00:29:07.005Z,-5.12
2019-01-20T00:31:07.957Z,-5.07
2019-01-20T00:33:08.869Z,-5.07
2019-01-20T00:35:09.527Z,-5.02
2019-01-20T00:37:10.445Z,-5.05
2019-01-20T00:39:11.348Z,-4.87
2019-01-20T00:41:12.060Z,-5.00
2019-01-20T00:43:13.053Z,-5.05
2019-01-20T00:45:15.595Z,-5.04
2019-01-20T00:47:16.537Z,-5.09
2019-01-20T00:49:17.476Z,-5.38
2019-01-20T00:51:18.212Z,-5.19
2019-01-20T00:53:18.902Z,-5.13
2019-01-20T00:55:19.565Z,-5.16
2019-01-20T00:57:20.261Z,-5.30
2019-01-20T00:59:21.116Z,-5.01
2019-01-20T01:01:22.098Z,-5.25
2019-01-20T01:03:22.707Z,-5.07
2019-01-20T01:05:23.875Z,-5.11
2019-01-20T01:07:24.793Z,-5.33
2019-01-20T01:09:25.398Z,-5.40
2019-01-20T01:11:31.571Z,-5.39
2019-01-20T01:13:28.792Z,-5.59
2019-01-20T01:15:29.732Z,-5.39
2019-01-20T01:17:30.419Z,-5.18
2019-01-20T01:19:31.075Z,-5.30
2019-01-20T01:21:32.034Z,-5.25
2019-01-20T01:23:32.710Z,-5.21
2019-01-20T01:25:33.399Z,-5.40
2019-01-20T01:27:34.300Z,-5.49
2019-01-20T01:29:35.251Z,-5.38
2019-01-20T01:31:35.967Z,-5.14
2019-01-20T01:33:36.899Z,-5.28
2019-01-20T01:35:37.851Z,-5.26
2019-01-20T01:37:38.608Z,-5.22
2019-01-20T01:39:39.509Z,-5.22
2019-01-20T01:41:40.331Z,-5.13
2019-01-20T01:43:41.327Z,-5.16
2019-01-20T01:45:42.220Z,-5.04
2019-01-20T01:47:43.072Z,-4.94
2019-01-20T01:49:44.003Z,-5.13
2019-01-20T01:51:44.679Z,-5.20
2019-01-20T01:53:45.308Z,-5.07
2019-01-20T01:55:46.204Z,-5.08
2019-01-20T01:57:46.873Z,-5.20
2019-01-20T01:59:47.739Z,-5.29
2019-01-20T02:01:48.463Z,-5.65
2019-01-20T02:03:49.158Z,-5.49
2019-01-20T02:05:51.021Z,-5.42
2019-01-20T02:07:51.920Z,-5.40
2019-01-20T02:09:52.523Z,-5.59
2019-01-20T02:11:53.132Z,-5.53
2019-01-20T02:13:54.011Z,-5.69
2019-01-20T02:15:54.678Z,-5.68
2019-01-20T02:17:55.306Z,-5.64
2019-01-20T02:19:55.960Z,-5.64
2019-01-20T02:21:56.651Z,-5.76
2019-01-20T02:23:57.487Z,-5.56
2019-01-20T02:25:58.180Z,-5.70
2019-01-20T02:27:59.243Z,-5.96
2019-01-20T02:30:00.216Z,-5.97
2019-01-20T02:32:01.185Z,-5.69
2019-01-20T02:34:01.861Z,-5.52
2019-01-20T02:36:02.777Z,-5.62
2019-01-20T02:38:03.702Z,-5.68
2019-01-20T02:40:08.787Z,-5.68
2019-01-20T02:42:09.406Z,-5.73
2019-01-20T02:44:10.158Z,-5.55
2019-01-20T02:46:10.751Z,-5.48
2019-01-20T02:48:11.620Z,-5.55
2019-01-20T02:50:14.580Z,-5.56
2019-01-20T02:52:15.292Z,-5.40
2019-01-20T02:54:16.159Z,-5.39
2019-01-20T02:56:16.829Z,-5.84
2019-01-20T02:58:17.483Z,-5.83
2019-01-20T03:00:20.261Z,-5.66
2019-01-20T03:02:21.162Z,-5.82
2019-01-20T03:04:22.078Z,-5.83
2019-01-20T03:06:22.705Z,-5.68
2019-01-20T03:08:23.636Z,-5.78
2019-01-20T03:10:24.567Z,-5.71
2019-01-20T03:12:25.276Z,-5.58
2019-01-20T03:14:25.931Z,-5.72
2019-01-20T03:16:26.860Z,-5.72
2019-01-20T03:18:27.562Z,-6.08
2019-01-20T03:20:28.463Z,-5.93
2019-01-20T03:22:29.115Z,-5.80
2019-01-20T03:24:29.994Z,-5.80
2019-01-20T03:26:30.942Z,-5.68
2019-01-20T03:28:31.865Z,-5.70
2019-01-20T03:30:32.486Z,-5.66
2019-01-20T03:32:33.212Z,-5.84
2019-01-20T03:34:34.080Z,-5.85
2019-01-20T03:36:34.982Z,-5.96
2019-01-20T03:38:35.708Z,-6.18
2019-01-20T03:40:36.627Z,-6.09
2019-01-20T03:42:37.727Z,-6.15
2019-01-20T03:44:38.407Z,-6.00
2019-01-20T03:46:39.107Z,-6.05
2019-01-20T03:48:39.946Z,-6.00
2019-01-20T03:50:40.606Z,-6.20
2019-01-20T03:52:41.342Z,-6.21
2019-01-20T03:54:42.278Z,-6.08
2019-01-20T03:56:43.130Z,-6.21
2019-01-20T03:58:43.798Z,-5.91
2019-01-20T04:00:44.752Z,-5.82
2019-01-20T04:02:45.669Z,-6.01
2019-01-20T04:04:46.521Z,-5.89
2019-01-20T04:06:47.478Z,-5.84
2019-01-20T04:08:48.240Z,-5.92
2019-01-20T04:10:48.858Z,-6.26
2019-01-20T04:12:49.554Z,-6.35
2019-01-20T04:14:50.324Z,-6.24
2019-01-20T04:16:50.987Z,-6.22
2019-01-20T04:18:51.831Z,-6.02
2019-01-20T04:20:52.475Z,-5.98
2019-01-20T04:22:53.406Z,-5.90
2019-01-20T04:24:54.645Z,-5.88
2019-01-20T04:26:55.463Z,-5.91
2019-01-20T04:28:56.334Z,-6.05
2019-01-20T04:30:56.962Z,-6.01
2019-01-20T04:32:57.680Z,-5.90
2019-01-20T04:34:58.380Z,-5.91
2019-01-20T04:36:59.236Z,-5.95
2019-01-20T04:39:00.207Z,-6.05
2019-01-20T04:41:00.816Z,-6.09
2019-01-20T04:43:01.705Z,-6.03
2019-01-20T04:45:07.273Z,-5.93
2019-01-20T04:47:08.218Z,-5.97
2019-01-20T04:49:09.045Z,-6.16
2019-01-20T04:51:09.798Z,-6.27
2019-01-20T04:53:13.307Z,-6.14
2019-01-20T04:55:14.501Z,-6.17
2019-01-20T04:57:16.190Z,-6.16
2019-01-20T04:59:17.127Z,-6.12
2019-01-20T05:01:17.800Z,-6.26
2019-01-20T05:03:18.691Z,-6.26
2019-01-20T05:05:19.372Z,-6.03
2019-01-20T05:07:20.239Z,-6.05
2019-01-20T05:09:21.191Z,-6.03
2019-01-20T05:11:21.800Z,-6.06
2019-01-20T05:13:22.848Z,-6.32
2019-01-20T05:15:23.556Z,-6.14
2019-01-20T05:17:24.493Z,-6.19
2019-01-20T05:19:25.345Z,-6.22
2019-01-20T05:21:26.081Z,-6.33
2019-01-20T05:23:27.122Z,-6.49
2019-01-20T05:25:28.052Z,-6.27
2019-01-20T05:27:29.000Z,-6.27
2019-01-20T05:29:29.962Z,-6.35
2019-01-20T05:31:30.609Z,-6.20
2019-01-20T05:33:31.495Z,-6.14
2019-01-20T05:35:32.406Z,-6.14
2019-01-20T05:37:33.122Z,-6.22
2019-01-20T05:39:34.088Z,-6.21
2019-01-20T05:41:34.875Z,-6.22
2019-01-20T05:43:35.761Z,-6.27
2019-01-20T05:45:36.467Z,-6.17
2019-01-20T05:47:37.081Z,-6.11
2019-01-20T05:49:37.911Z,-6.11
2019-01-20T05:51:38.788Z,-6.24
2019-01-20T05:53:39.685Z,-6.28
2019-01-20T05:55:40.282Z,-6.27
2019-01-20T05:57:40.900Z,-6.24
2019-01-20T05:59:41.536Z,-6.23
2019-01-20T06:01:42.417Z,-6.30
2019-01-20T06:03:43.363Z,-6.58
2019-01-20T06:05:44.050Z,-6.49
2019-01-20T06:07:44.907Z,-6.73
2019-01-20T06:09:45.649Z,-7.06
2019-01-20T06:11:46.621Z,-6.95
2019-01-20T06:13:47.476Z,-6.59
2019-01-20T06:15:48.140Z,-6.51
2019-01-20T06:17:49.090Z,-6.61
2019-01-20T06:19:50.033Z,-6.87
2019-01-20T06:21:50.735Z,-6.63
2019-01-20T06:23:51.796Z,-6.58
2019-01-20T06:25:52.627Z,-6.42
2019-01-20T06:27:53.347Z,-6.37
2019-01-20T06:29:54.367Z,-6.47
2019-01-20T06:31:55.993Z,-6.48
2019-01-20T06:33:56.656Z,-6.62
2019-01-20T06:35:57.356Z,-6.40
2019-01-20T06:37:57.996Z,-6.60
2019-01-20T06:39:58.875Z,-6.49
2019-01-20T06:41:59.478Z,-6.44
2019-01-20T06:44:00.169Z,-6.37
2019-01-20T06:46:01.069Z,-6.43
2019-01-20T06:48:01.935Z,-6.63
2019-01-20T06:50:06.339Z,-6.75
2019-01-20T06:52:07.217Z,-6.62
2019-01-20T06:54:08.163Z,-6.53
2019-01-20T06:56:08.858Z,-6.46
2019-01-20T06:58:09.738Z,-6.50
2019-01-20T07:00:16.535Z,-6.51
2019-01-20T07:02:17.185Z,-6.61
2019-01-20T07:04:18.083Z,-6.58
2019-01-20T07:06:18.941Z,-6.63
2019-01-20T07:08:19.589Z,-7.07
2019-01-20T07:10:20.478Z,-6.88
2019-01-20T07:12:21.430Z,-7.10
2019-01-20T07:14:22.082Z,-6.89
2019-01-20T07:16:22.945Z,-6.82
2019-01-20T07:18:23.640Z,-6.84
2019-01-20T07:20:24.504Z,-6.78
2019-01-20T07:22:25.475Z,-6.92
2019-01-20T07:24:26.141Z,-6.82
2019-01-20T07:26:26.734Z,-6.56
2019-01-20T07:28:27.604Z,-6.56
2019-01-20T07:30:28.228Z,-6.69
2019-01-20T07:32:29.100Z,-6.65
2019-01-20T07:34:29.723Z,-6.49
2019-01-20T07:36:30.420Z,-6.44
2019-01-20T07:38:31.044Z,-6.54
2019-01-20T07:40:32.140Z,-6.65
2019-01-20T07:42:33.054Z,-6.65
2019-01-20T07:44:33.990Z,-6.89
2019-01-20T07:46:34.960Z,-6.84
2019-01-20T07:48:35.863Z,-6.79
2019-01-20T07:50:36.798Z,-6.53
2019-01-20T07:52:37.676Z,-6.75
2019-01-20T07:54:38.558Z,-6.55
2019-01-20T07:56:39.511Z,-6.35
2019-01-20T07:58:40.454Z,-6.38
2019-01-20T08:00:41.134Z,-6.40
2019-01-20T08:02:41.760Z,-6.14
2019-01-20T08:04:42.718Z,-5.97
2019-01-20T08:06:43.562Z,-5.84
2019-01-20T08:08:44.211Z,-5.64
2019-01-20T08:10:45.144Z,-5.75
2019-01-20T08:12:46.293Z,-5.60
2019-01-20T08:14:46.960Z,-5.51
2019-01-20T08:16:47.819Z,-5.84
2019-01-20T08:18:48.777Z,-6.04
2019-01-20T08:20:49.457Z,-5.63
2019-01-20T08:22:50.666Z,-5.60
2019-01-20T08:24:51.576Z,-5.62
2019-01-20T08:26:52.501Z,-5.56
2019-01-20T08:28:53.221Z,-5.59
2019-01-20T08:30:54.065Z,-5.65
2019-01-20T08:32:54.770Z,-5.56
2019-01-20T08:34:55.674Z,-5.59
2019-01-20T08:36:56.513Z,-5.59
2019-01-20T08:38:57.408Z,-5.64
2019-01-20T08:40:58.348Z,-5.86
2019-01-20T08:42:58.973Z,-6.10
2019-01-20T08:44:59.687Z,-6.20
2019-01-20T08:47:02.256Z,-6.27
2019-01-20T08:49:03.300Z,-6.20
2019-01-20T08:51:04.249Z,-5.95
2019-01-20T08:53:05.100Z,-6.03
2019-01-20T08:55:07.105Z,-5.91
2019-01-20T08:57:07.997Z,-5.94
2019-01-20T08:59:08.627Z,-5.70
2019-01-20T09:01:09.385Z,-5.59
2019-01-20T09:03:10.057Z,-5.73
2019-01-20T09:05:11.621Z,-5.60
2019-01-20T09:07:12.541Z,-5.36
2019-01-20T09:09:13.247Z,-5.22
2019-01-20T09:11:14.128Z,-5.35
2019-01-20T09:13:15.068Z,-5.15
2019-01-20T09:15:15.901Z,-5.17
2019-01-20T09:17:16.896Z,-5.33
2019-01-20T09:19:17.733Z,-5.31
2019-01-20T09:21:18.668Z,-5.35
2019-01-20T09:23:19.633Z,-5.20
2019-01-20T09:25:20.577Z,-5.47
2019-01-20T09:27:21.495Z,-5.03
2019-01-20T09:29:22.217Z,-5.19
2019-01-20T09:31:23.146Z,-4.91
2019-01-20T09:33:24.694Z,-4.69
2019-01-20T09:35:25.519Z,-4.89
2019-01-20T09:37:26.482Z,-5.12
2019-01-20T09:39:27.186Z,-5.09
2019-01-20T09:41:27.918Z,-5.23
2019-01-20T09:43:28.867Z,-5.40
2019-01-20T09:45:30.358Z,-5.07
2019-01-20T09:47:32.060Z,-4.97
2019-01-20T09:49:32.766Z,-4.84
2019-01-20T09:51:33.613Z,-4.89
2019-01-20T09:53:34.336Z,-5.05
2019-01-20T09:55:34.944Z,-5.26
2019-01-20T09:57:35.852Z,-4.40
2019-01-20T09:59:36.557Z,-4.40
2019-01-20T10:01:37.484Z,-4.40
2019-01-20T10:03:38.420Z,-4.42
2019-01-20T10:05:39.139Z,-4.15
2019-01-20T10:07:41.120Z,-4.11
2019-01-20T10:09:42.005Z,-3.67
2019-01-20T10:11:42.664Z,-3.67
2019-01-20T10:13:45.925Z,-3.38
2019-01-20T10:15:52.218Z,-3.43
2019-01-20T10:17:52.630Z,-3.50
2019-01-20T10:19:53.473Z,-3.52
2019-01-20T10:21:54.188Z,-3.36
2019-01-20T10:23:55.096Z,-3.32
2019-01-20T10:25:55.997Z,-2.99
2019-01-20T10:27:56.986Z,-2.35
2019-01-20T10:29:58.016Z,-2.01
2019-01-20T10:31:58.759Z,-3.38
2019-01-20T10:34:00.518Z,-3.12
2019-01-20T10:36:02.095Z,-2.90
2019-01-20T10:38:03.434Z,-3.09
2019-01-20T10:40:06.037Z,-2.34
2019-01-20T10:42:06.929Z,-2.50
2019-01-20T10:44:07.886Z,-2.98
2019-01-20T10:46:09.958Z,-3.06
2019-01-20T10:48:10.778Z,-2.92
2019-01-20T10:50:14.124Z,-3.20
2019-01-20T10:52:16.123Z,-3.31
2019-01-20T10:54:18.290Z,-3.40
2019-01-20T10:56:19.218Z,-3.41
2019-01-20T10:58:20.171Z,-3.06
2019-01-20T11:00:31.073Z,-2.86
2019-01-20T11:02:31.966Z,-2.75
2019-01-20T11:04:35.926Z,-2.69
2019-01-20T11:06:36.597Z,-2.27
2019-01-20T11:08:37.529Z,-2.11
2019-01-20T11:10:39.947Z,-2.47
2019-01-20T11:12:42.397Z,-1.98
2019-01-20T11:14:45.060Z,-2.44
2019-01-20T11:16:45.753Z,-2.28
2019-01-20T11:18:46.618Z,-2.10
2019-01-20T11:20:47.262Z,-2.00
2019-01-20T11:22:48.030Z,-1.47
2019-01-20T11:24:48.700Z,-1.14
2019-01-20T11:26:51.048Z,-1.23
2019-01-20T11:28:51.831Z,-1.26
2019-01-20T11:30:53.901Z,-1.11
2019-01-20T11:32:55.788Z,-1.51
2019-01-20T11:34:58.102Z,-1.14
2019-01-20T11:37:00.169Z,-1.10
2019-01-20T11:39:00.856Z,-1.03
2019-01-20T11:41:03.494Z,-1.39
2019-01-20T11:43:05.637Z,-0.15
2019-01-20T11:45:11.651Z,-0.77
2019-01-20T11:47:13.046Z,-1.28
2019-01-20T11:49:17.797Z,-1.15
2019-01-20T11:51:18.667Z,-1.12
2019-01-20T11:53:19.283Z,-1.14
2019-01-20T11:55:21.832Z,-1.21
2019-01-20T11:57:22.711Z,-1.05
2019-01-20T11:59:23.543Z,-1.27
2019-01-20T12:01:25.804Z,-1.18
2019-01-20T12:03:26.721Z,-1.15
2019-01-20T12:05:28.529Z,-0.77
2019-01-20T12:07:29.234Z,-0.36
2019-01-20T12:09:29.962Z,-0.69
2019-01-20T12:11:33.588Z,-0.34
2019-01-20T12:13:34.323Z,-0.03
2019-01-20T12:15:35.684Z,-0.99
2019-01-20T12:17:36.597Z,-0.67
2019-01-20T12:19:37.293Z,-0.49
2019-01-20T12:21:42.577Z,-0.06
2019-01-20T12:23:43.280Z,-0.14
2019-01-20T12:25:46.625Z,-0.16
2019-01-20T12:27:47.553Z,-0.04
2019-01-20T12:29:51.983Z,0.26
2019-01-20T12:31:50.759Z,0.26
2019-01-20T12:33:51.671Z,0.24
2019-01-20T12:35:53.303Z,0.31
2019-01-20T12:37:54.026Z,0.25
2019-01-20T12:39:54.732Z,0.03
2019-01-20T12:41:58.705Z,0.12
2019-01-20T12:44:02.636Z,0.19
2019-01-20T12:46:03.648Z,0.10
2019-01-20T12:48:04.590Z,0.79
2019-01-20T12:50:14.373Z,1.11
2019-01-20T12:52:15.000Z,1.14
2019-01-20T12:54:15.610Z,0.72
2019-01-20T12:56:16.249Z,0.92
2019-01-20T12:58:19.687Z,0.60
2019-01-20T13:00:20.663Z,0.51
2019-01-20T13:02:21.373Z,1.04
2019-01-20T13:04:21.978Z,1.38
2019-01-20T13:06:22.665Z,1.19
2019-01-20T13:08:23.361Z,1.41
2019-01-20T13:10:24.255Z,1.90
2019-01-20T13:12:25.188Z,1.09
2019-01-20T13:14:25.937Z,1.16
2019-01-20T13:16:26.889Z,1.51
2019-01-20T13:18:28.424Z,1.20
2019-01-20T13:20:29.367Z,0.77
2019-01-20T13:22:29.969Z,1.03
2019-01-20T13:24:30.725Z,0.89
2019-01-20T13:26:31.434Z,0.97
2019-01-20T13:28:32.130Z,1.08
2019-01-20T13:30:36.196Z,1.34
2019-01-20T13:32:36.893Z,0.80
2019-01-20T13:34:37.960Z,0.68
2019-01-20T13:36:39.207Z,0.97
2019-01-20T13:38:40.263Z,1.08
2019-01-20T13:40:47.288Z,1.04
2019-01-20T13:42:47.909Z,0.76
2019-01-20T13:44:48.903Z,0.77
2019-01-20T13:46:49.793Z,0.95
2019-01-20T13:48:50.494Z,0.81
2019-01-20T13:50:51.272Z,0.75
2019-01-20T13:52:51.869Z,0.50
2019-01-20T13:54:52.489Z,0.61
2019-01-20T13:56:53.180Z,0.66
2019-01-20T13:58:56.848Z,0.70
2019-01-20T14:00:57.874Z,0.61
2019-01-20T14:03:00.865Z,0.59
2019-01-20T14:05:02.100Z,0.81
2019-01-20T14:07:03.066Z,0.58
2019-01-20T14:09:05.231Z,0.64
2019-01-20T14:11:08.664Z,0.64
2019-01-20T14:13:10.129Z,0.88
2019-01-20T14:15:12.654Z,0.90
2019-01-20T14:17:16.258Z,0.60
2019-01-20T14:19:21.668Z,0.53
2019-01-20T14:21:19.551Z,0.76
2019-01-20T14:23:21.788Z,0.80
2019-01-20T14:25:27.131Z,0.71
2019-01-20T14:27:28.244Z,0.69
2019-01-20T14:29:30.458Z,0.97
2019-01-20T14:31:32.231Z,1.29
2019-01-20T14:33:32.952Z,0.95
2019-01-20T14:35:33.734Z,1.03
2019-01-20T14:37:34.408Z,0.86
2019-01-20T14:39:35.146Z,0.81
2019-01-20T14:41:35.780Z,1.01
2019-01-20T14:43:36.455Z,0.96
2019-01-20T14:45:37.194Z,0.81
2019-01-20T14:47:40.116Z,0.61
2019-01-20T14:49:42.037Z,0.92
2019-01-20T14:51:42.775Z,0.85
2019-01-20T14:53:43.486Z,0.71
2019-01-20T14:55:44.435Z,0.72
2019-01-20T14:57:47.104Z,0.47
2019-01-20T14:59:47.983Z,0.66
2019-01-20T15:01:48.660Z,0.54
2019-01-20T15:03:50.938Z,0.44
2019-01-20T15:05:51.557Z,0.46
2019-01-20T15:07:52.433Z,0.64
2019-01-20T15:09:53.382Z,0.22
2019-01-20T15:11:54.367Z,0.47
2019-01-20T15:13:55.063Z,0.28
2019-01-20T15:15:55.702Z,0.50
2019-01-20T15:17:56.357Z,0.45
2019-01-20T15:19:57.303Z,0.20
2019-01-20T15:21:58.279Z,0.51
2019-01-20T15:23:59.538Z,0.53
2019-01-20T15:26:00.609Z,0.46
2019-01-20T15:28:01.651Z,0.23
2019-01-20T15:30:06.881Z,0.09
2019-01-20T15:32:08.132Z,0.00
2019-01-20T15:34:09.142Z,-0.01
2019-01-20T15:36:10.700Z,0.08
2019-01-20T15:38:11.838Z,-0.03
2019-01-20T15:40:16.523Z,0.18
2019-01-20T15:42:17.342Z,0.13
2019-01-20T15:44:18.197Z,0.12
2019-01-20T15:46:24.297Z,0.05
2019-01-20T15:48:27.751Z,-0.06
2019-01-20T15:50:31.948Z,-0.48
2019-01-20T15:52:32.802Z,-0.57
2019-01-20T15:54:33.548Z,-0.52
2019-01-20T15:56:34.250Z,-0.74
2019-01-20T15:58:35.046Z,-0.84
2019-01-20T16:00:35.957Z,-0.74
2019-01-20T16:02:36.591Z,-0.91
2019-01-20T16:04:38.335Z,-0.94
2019-01-20T16:06:42.186Z,-0.90
2019-01-20T16:08:43.787Z,-0.95
2019-01-20T16:10:44.463Z,-1.06
2019-01-20T16:12:46.243Z,-1.11
2019-01-20T16:14:46.912Z,-1.10
2019-01-20T16:16:47.595Z,-1.14
2019-01-20T16:18:48.270Z,-1.20
2019-01-20T16:20:49.006Z,-1.19
2019-01-20T16:22:49.667Z,-1.16
2019-01-20T16:24:55.956Z,-1.31
2019-01-20T16:27:00.920Z,-1.31
2019-01-20T16:29:01.951Z,-1.28
2019-01-20T16:31:08.099Z,-1.36
2019-01-20T16:33:11.846Z,-1.29
2019-01-20T16:35:12.803Z,-1.42
2019-01-20T16:37:17.612Z,-1.49
2019-01-20T16:39:18.540Z,-1.54
2019-01-20T16:41:20.385Z,-1.53
2019-01-20T16:43:21.263Z,-1.63
2019-01-20T16:45:34.020Z,-1.67
2019-01-20T16:47:34.303Z,-1.67
2019-01-20T16:49:34.913Z,-1.75
2019-01-20T16:51:35.604Z,-1.80
2019-01-20T16:53:36.495Z,-1.96
2019-01-20T16:55:38.965Z,-2.07
2019-01-20T16:57:39.897Z,-2.10
2019-01-20T16:59:40.527Z,-2.19
2019-01-20T17:01:41.244Z,-2.24
2019-01-20T17:03:41.862Z,-2.47
2019-01-20T17:05:44.801Z,-2.47
2019-01-20T17:07:48.057Z,-2.59
2019-01-20T17:09:48.955Z,-2.61
2019-01-20T17:11:49.850Z,-2.60
2019-01-20T17:13:50.757Z,-2.52
2019-01-20T17:15:51.580Z,-2.62
2019-01-20T17:17:52.299Z,-2.72
2019-01-20T17:19:53.000Z,-2.67
2019-01-20T17:21:53.630Z,-2.60
2019-01-20T17:23:54.275Z,-2.63
2019-01-20T17:25:54.887Z,-2.75
2019-01-20T17:27:56.686Z,-2.80
2019-01-20T17:29:57.332Z,-2.74
2019-01-20T17:31:58.312Z,-2.87
2019-01-20T17:33:58.947Z,-2.77
2019-01-20T17:35:59.596Z,-2.79
2019-01-20T17:38:00.533Z,-2.76
2019-01-20T17:40:03.043Z,-2.88
2019-01-20T17:42:03.739Z,-2.81
2019-01-20T17:44:04.681Z,-2.72
2019-01-20T17:46:05.927Z,-2.73
2019-01-20T17:48:06.981Z,-2.82
2019-01-20T17:50:11.760Z,-3.00
2019-01-20T17:52:12.375Z,-2.98
2019-01-20T17:54:13.028Z,-2.94
2019-01-20T17:56:14.524Z,-2.90
2019-01-20T17:58:15.482Z,-2.97
2019-01-20T18:00:18.924Z,-3.07
2019-01-20T18:02:19.607Z,-3.15
2019-01-20T18:04:20.239Z,-3.32
2019-01-20T18:06:21.523Z,-3.19
2019-01-20T18:08:22.215Z,-3.33
2019-01-20T18:10:22.849Z,-3.23
2019-01-20T18:12:23.961Z,-3.23
2019-01-20T18:14:24.800Z,-3.23
2019-01-20T18:16:25.451Z,-3.20
2019-01-20T18:18:26.149Z,-3.34
2019-01-20T18:20:28.618Z,-3.23
2019-01-20T18:22:29.525Z,-3.38
2019-01-20T18:24:31.340Z,-3.35
2019-01-20T18:26:32.228Z,-3.31
2019-01-20T18:28:33.282Z,-3.47
2019-01-20T18:30:34.818Z,-3.35
2019-01-20T18:32:36.221Z,-3.33
2019-01-20T18:34:37.766Z,-3.44
2019-01-20T18:36:38.644Z,-3.58
2019-01-20T18:38:39.330Z,-3.54
2019-01-20T18:40:39.929Z,-3.55
2019-01-20T18:42:40.576Z,-3.59
2019-01-20T18:44:42.108Z,-3.75
2019-01-20T18:46:43.044Z,-3.62
2019-01-20T18:48:43.688Z,-3.50
2019-01-20T18:50:44.569Z,-3.57
2019-01-20T18:52:45.785Z,-3.59
2019-01-20T18:54:46.694Z,-3.61
2019-01-20T18:56:47.300Z,-3.65
2019-01-20T18:58:48.759Z,-3.60
2019-01-20T19:00:50.090Z,-3.43
2019-01-20T19:02:51.188Z,-3.46
2019-01-20T19:04:52.471Z,-3.52
2019-01-20T19:06:53.708Z,-3.67
2019-01-20T19:08:54.636Z,-3.66
2019-01-20T19:10:55.995Z,-3.56
2019-01-20T19:12:56.996Z,-3.58
2019-01-20T19:15:01.092Z,-3.71
2019-01-20T19:17:01.987Z,-3.61
2019-01-20T19:19:03.080Z,-3.76
2019-01-20T19:21:03.682Z,-4.12
2019-01-20T19:23:04.316Z,-3.97
2019-01-20T19:25:05.167Z,-3.83
2019-01-20T19:27:07.330Z,-4.14
2019-01-20T19:29:08.171Z,-4.12
2019-01-20T19:31:08.915Z,-3.98
2019-01-20T19:33:09.840Z,-4.14
2019-01-20T19:35:10.906Z,-4.08
2019-01-20T19:37:11.605Z,-4.16
2019-01-20T19:39:12.538Z,-4.22
2019-01-20T19:41:13.240Z,-4.14
2019-01-20T19:43:13.952Z,-4.24
2019-01-20T19:45:17.753Z,-4.34
2019-01-20T19:47:18.425Z,-4.26
2019-01-20T19:49:19.050Z,-4.28
2019-01-20T19:51:19.897Z,-4.18
2019-01-20T19:53:20.524Z,-4.28
2019-01-20T19:55:25.060Z,-4.28
2019-01-20T19:57:26.216Z,-4.27
2019-01-20T19:59:27.137Z,-4.37
2019-01-20T20:01:30.893Z,-4.30
2019-01-20T20:03:30.397Z,-4.15
2019-01-20T20:05:31.382Z,-4.12
2019-01-20T20:07:32.097Z,-4.14
2019-01-20T20:09:33.001Z,-4.45
2019-01-20T20:11:33.880Z,-4.74
2019-01-20T20:13:34.817Z,-4.81
2019-01-20T20:15:36.403Z,-4.96
2019-01-20T20:17:37.049Z,-4.73
2019-01-20T20:19:37.700Z,-4.56
2019-01-20T20:21:38.644Z,-4.38
2019-01-20T20:23:39.805Z,-4.45
2019-01-20T20:25:40.762Z,-4.36
2019-01-20T20:27:41.844Z,-4.42
2019-01-20T20:29:43.146Z,-4.56
2019-01-20T20:31:44.374Z,-4.69
2019-01-20T20:33:45.541Z,-4.54
2019-01-20T20:35:46.543Z,-4.57
2019-01-20T20:37:47.577Z,-4.78
2019-01-20T20:39:48.556Z,-4.68
2019-01-20T20:41:49.192Z,-4.66
2019-01-20T20:43:50.087Z,-4.76
2019-01-20T20:45:50.758Z,-4.84
2019-01-20T20:47:51.388Z,-4.77
2019-01-20T20:49:52.040Z,-4.75
2019-01-20T20:51:52.638Z,-5.00
2019-01-20T20:53:53.465Z,-4.95
2019-01-20T20:55:54.425Z,-4.82
2019-01-20T20:57:55.053Z,-4.73
2019-01-20T20:59:55.908Z,-4.70
2019-01-20T21:01:56.642Z,-4.78
2019-01-20T21:03:57.590Z,-4.74
2019-01-20T21:05:58.271Z,-4.66
2019-01-20T21:07:58.924Z,-4.69
2019-01-20T21:09:59.567Z,-4.94
2019-01-20T21:12:00.494Z,-4.96
2019-01-20T21:14:01.242Z,-4.97
2019-01-20T21:16:02.331Z,-4.98
2019-01-20T21:18:02.968Z,-5.26
2019-01-20T21:20:07.394Z,-5.07
2019-01-20T21:22:08.050Z,-5.32
2019-01-20T21:24:09.057Z,-5.18
2019-01-20T21:26:09.948Z,-5.06
2019-01-20T21:28:10.889Z,-5.02
2019-01-20T21:30:15.068Z,-4.98
2019-01-20T21:32:16.021Z,-5.09
2019-01-20T21:34:16.924Z,-5.42
2019-01-20T21:36:17.864Z,-5.18
2019-01-20T21:38:18.997Z,-5.21
2019-01-20T21:40:19.938Z,-5.35
2019-01-20T21:42:20.647Z,-5.33
2019-01-20T21:44:21.328Z,-5.31
2019-01-20T21:46:22.009Z,-5.18
2019-01-20T21:48:22.629Z,-5.14
2019-01-20T21:50:25.694Z,-5.14
2019-01-20T21:52:26.606Z,-4.99
2019-01-20T21:54:27.532Z,-5.13
2019-01-20T21:56:29.140Z,-5.13
2019-01-20T21:58:30.671Z,-5.22
2019-01-20T22:00:31.422Z,-5.43
2019-01-20T22:02:32.316Z,-5.33
2019-01-20T22:04:32.993Z,-5.17
2019-01-20T22:06:33.617Z,-5.08
2019-01-20T22:08:35.097Z,-5.21
2019-01-20T22:10:36.023Z,-5.20
2019-01-20T22:12:36.732Z,-5.46
2019-01-20T22:14:37.620Z,-5.46
2019-01-20T22:16:38.282Z,-5.34
2019-01-20T22:18:38.922Z,-5.53
2019-01-20T22:20:39.541Z,-5.40
2019-01-20T22:22:40.627Z,-5.39
2019-01-20T22:24:41.561Z,-5.53
2019-01-20T22:29:26.950Z,-5.39
2019-01-20T22:31:27.847Z,-5.36
2019-01-20T22:33:28.808Z,-5.39
2019-01-20T22:35:29.995Z,-5.39
2019-01-20T22:37:49.831Z,-5.45
2019-01-20T22:40:00.012Z,-5.43
2019-01-20T22:42:12.540Z,-5.42
2019-01-20T22:44:13.567Z,-5.35
2019-01-20T22:46:14.757Z,-5.35
2019-01-20T22:48:18.333Z,-5.56
2019-01-20T22:50:21.239Z,-5.40
2019-01-20T22:52:22.346Z,-5.34
2019-01-20T22:54:24.835Z,-5.39
2019-01-20T22:56:25.882Z,-5.51
2019-01-20T22:59:19.159Z,-5.53
2019-01-20T23:06:06.306Z,-5.71
2019-01-20T23:08:07.176Z,-5.75
2019-01-20T23:10:08.146Z,-5.70
2019-01-20T23:12:09.430Z,-5.70
2019-01-20T23:17:09.277Z,-5.70
2019-01-20T23:19:10.449Z,-5.76
2019-01-20T23:21:11.226Z,-5.69
2019-01-20T23:23:12.472Z,-5.78
2019-01-20T23:25:13.590Z,-5.78
2019-01-20T23:27:14.943Z,-5.82
2019-01-20T23:29:17.103Z,-5.68
2019-01-20T23:31:35.967Z,-5.74
2019-01-20T23:33:36.793Z,-5.89
2019-01-20T23:35:38.016Z,-5.94
2019-01-20T23:37:39.252Z,-6.08
2019-01-20T23:39:40.192Z,-6.08
2019-01-20T23:41:40.852Z,-5.98
2019-01-20T23:43:42.192Z,-5.91
2019-01-20T23:45:43.508Z,-6.00
2019-01-20T23:47:44.334Z,-5.87
2019-01-20T23:49:48.255Z,-5.94
2019-01-20T23:51:50.561Z,-5.98
2019-01-20T23:58:49.952Z,-5.99
